createdAt,value
2022-11-27T00:01:00.652Z,97566.63
2022-11-27T00:03:28.047Z,97565.84
2022-11-27T00:05:56.735Z,97561.34
2022-11-27T00:08:25.334Z,97554.06
2022-11-27T00:10:52.259Z,97526.69
2022-11-27T00:13:19.169Z,97545.94
2022-11-27T00:15:46.053Z,97496.00
2022-11-27T00:18:12.765Z,97527.00
2022-11-27T00:20:39.932Z,97538.16
2022-11-27T00:23:06.557Z,97497.16
2022-11-27T00:25:33.293Z,97503.09
2022-11-27T00:27:59.909Z,97528.53
2022-11-27T00:30:26.548Z,97486.06
2022-11-27T00:32:53.137Z,97470.28
2022-11-27T00:35:19.767Z,97492.22
2022-11-27T00:37:46.435Z,97515.97
2022-11-27T00:40:13.284Z,97484.66
2022-11-27T00:42:40.012Z,97490.66
2022-11-27T00:45:07.557Z,97494.28
2022-11-27T00:47:34.293Z,97504.19
2022-11-27T00:50:00.915Z,97513.16
2022-11-27T00:52:27.593Z,97499.47
2022-11-27T00:54:54.296Z,97514.69
2022-11-27T00:57:20.893Z,97485.16
2022-11-27T00:59:47.540Z,97512.16
2022-11-27T01:02:14.285Z,97499.63
2022-11-27T01:04:41.313Z,97492.88
2022-11-27T01:07:08.247Z,97463.97
2022-11-27T01:09:34.901Z,97473.09
2022-11-27T01:12:01.623Z,97454.63
2022-11-27T01:14:28.285Z,97454.94
2022-11-27T01:16:55.128Z,97481.44
2022-11-27T01:19:21.752Z,97465.00
2022-11-27T01:21:48.401Z,97463.69
2022-11-27T01:24:16.487Z,97474.25
2022-11-27T01:26:43.699Z,97458.06
2022-11-27T01:29:11.298Z,97490.00
2022-11-27T01:31:38.058Z,97461.34
2022-11-27T01:34:09.235Z,97474.06
2022-11-27T01:36:36.042Z,97482.81
2022-11-27T01:39:04.099Z,97489.13
2022-11-27T01:41:34.265Z,97485.06
2022-11-27T01:44:03.998Z,97471.34
2022-11-27T01:46:44.251Z,97453.44
2022-11-27T01:49:10.938Z,97491.56
2022-11-27T01:51:43.166Z,97458.25
2022-11-27T01:54:10.998Z,97495.59
2022-11-27T01:56:40.489Z,97491.63
2022-11-27T01:59:08.039Z,97443.22
2022-11-27T02:01:34.883Z,97477.50
2022-11-27T02:04:01.894Z,97483.34
2022-11-27T02:06:29.364Z,97453.75
2022-11-27T02:08:56.613Z,97469.69
2022-11-27T02:11:50.343Z,97455.00
2022-11-27T02:14:46.125Z,97450.09
2022-11-27T02:17:42.297Z,97415.03
2022-11-27T02:20:36.679Z,97439.16
2022-11-27T02:23:40.430Z,97434.19
2022-11-27T02:26:43.684Z,97433.16
2022-11-27T02:29:16.406Z,97408.34
2022-11-27T02:32:04.537Z,97432.25
2022-11-27T02:34:50.970Z,97424.34
2022-11-27T02:37:42.761Z,97426.34
2022-11-27T02:40:21.643Z,97426.47
2022-11-27T02:42:54.352Z,97424.97
2022-11-27T02:45:31.387Z,97387.59
2022-11-27T02:47:59.015Z,97406.69
2022-11-27T02:50:28.436Z,97395.81
2022-11-27T02:53:00.242Z,97403.78
2022-11-27T02:55:30.897Z,97425.00
2022-11-27T02:58:00.796Z,97423.66
2022-11-27T03:00:29.302Z,97390.31
2022-11-27T03:03:03.942Z,97410.03
2022-11-27T03:05:36.200Z,97413.47
2022-11-27T03:08:10.266Z,97421.06
2022-11-27T03:10:47.598Z,97426.56
2022-11-27T03:13:14.542Z,97423.84
2022-11-27T03:15:57.310Z,97442.06
2022-11-27T03:18:40.630Z,97415.94
2022-11-27T03:21:38.962Z,97433.84
2022-11-27T03:24:09.989Z,97408.59
2022-11-27T03:26:38.159Z,97394.94
2022-11-27T03:29:14.577Z,97427.53
2022-11-27T03:31:41.461Z,97416.63
2022-11-27T03:34:08.537Z,97427.06
2022-11-27T03:36:35.164Z,97423.91
2022-11-27T03:39:02.481Z,97410.47
2022-11-27T03:41:41.207Z,97416.63
2022-11-27T03:44:32.574Z,97419.31
2022-11-27T03:47:15.938Z,97426.50
2022-11-27T03:50:05.114Z,97424.03
2022-11-27T03:52:59.370Z,97427.06
2022-11-27T03:55:37.777Z,97423.44
2022-11-27T03:58:09.555Z,97399.94
2022-11-27T04:00:40.488Z,97372.41
2022-11-27T04:03:11.483Z,97409.88
2022-11-27T04:05:38.615Z,97393.22
2022-11-27T04:08:05.857Z,97365.75
2022-11-27T04:10:32.413Z,97361.28
2022-11-27T04:12:58.995Z,97364.59
2022-11-27T04:15:25.649Z,97399.03
2022-11-27T04:17:52.219Z,97382.88
2022-11-27T04:20:18.807Z,97406.41
2022-11-27T04:22:45.403Z,97399.69
2022-11-27T04:25:12.097Z,97410.47
2022-11-27T04:27:38.671Z,97387.31
2022-11-27T04:30:05.772Z,97365.75
2022-11-27T04:32:32.396Z,97363.63
2022-11-27T04:34:59.006Z,97399.13
2022-11-27T04:37:25.971Z,97385.72
2022-11-27T04:39:55.430Z,97381.13
2022-11-27T04:42:22.097Z,97369.16
2022-11-27T04:44:48.699Z,97399.34
2022-11-27T04:47:15.405Z,97394.69
2022-11-27T04:49:42.006Z,97403.47
2022-11-27T04:52:10.804Z,97374.44
2022-11-27T04:54:38.055Z,97405.22
2022-11-27T04:57:05.015Z,97372.84
2022-11-27T04:59:31.609Z,97361.47
2022-11-27T05:01:58.621Z,97359.44
2022-11-27T05:04:25.383Z,97368.91
2022-11-27T05:06:52.021Z,97385.06
2022-11-27T05:09:18.696Z,97361.66
2022-11-27T05:11:45.680Z,97390.59
2022-11-27T05:14:15.269Z,97392.63
2022-11-27T05:16:42.876Z,97358.28
2022-11-27T05:19:10.739Z,97384.16
2022-11-27T05:21:38.450Z,97322.63
2022-11-27T05:24:05.549Z,97345.69
2022-11-27T05:26:32.596Z,97356.69
2022-11-27T05:28:59.298Z,97373.69
2022-11-27T05:31:25.945Z,97390.38
2022-11-27T05:33:52.609Z,97391.97
2022-11-27T05:36:19.318Z,97369.94
2022-11-27T05:38:45.987Z,97370.31
2022-11-27T05:41:12.895Z,97395.16
2022-11-27T05:43:39.590Z,97373.81
2022-11-27T05:46:07.625Z,97401.72
2022-11-27T05:48:35.484Z,97392.69
2022-11-27T05:51:02.605Z,97377.25
2022-11-27T05:53:29.363Z,97359.41
2022-11-27T05:56:12.198Z,97373.03
2022-11-27T05:58:40.363Z,97390.59
2022-11-27T06:01:09.024Z,97397.88
2022-11-27T06:03:35.860Z,97378.88
2022-11-27T06:06:10.257Z,97396.53
2022-11-27T06:08:40.773Z,97389.66
2022-11-27T06:11:13.257Z,97387.69
2022-11-27T06:13:40.603Z,97357.00
2022-11-27T06:16:22.031Z,97376.34
2022-11-27T06:18:50.953Z,97355.53
2022-11-27T06:21:17.763Z,97369.88
2022-11-27T06:23:44.623Z,97376.66
2022-11-27T06:26:11.614Z,97377.13
2022-11-27T06:28:38.314Z,97373.50
2022-11-27T06:31:06.958Z,97340.94
2022-11-27T06:33:34.075Z,97366.84
2022-11-27T06:36:01.244Z,97365.03
2022-11-27T06:38:27.904Z,97396.78
2022-11-27T06:40:54.497Z,97383.91
2022-11-27T06:43:21.144Z,97381.16
2022-11-27T06:45:55.946Z,97396.13
2022-11-27T06:48:22.712Z,97402.38
2022-11-27T06:50:49.375Z,97395.69
2022-11-27T06:53:16.013Z,97403.81
2022-11-27T06:55:42.652Z,97399.50
2022-11-27T06:58:09.245Z,97392.75
2022-11-27T07:00:36.051Z,97365.09
2022-11-27T07:03:03.097Z,97392.34
2022-11-27T07:05:30.064Z,97353.81
2022-11-27T07:07:58.128Z,97407.84
2022-11-27T07:10:24.756Z,97387.16
2022-11-27T07:12:51.384Z,97411.72
2022-11-27T07:15:18.009Z,97396.28
2022-11-27T07:17:44.607Z,97411.59
2022-11-27T07:20:11.536Z,97416.34
2022-11-27T07:22:38.131Z,97366.72
2022-11-27T07:25:05.174Z,97405.91
2022-11-27T07:27:31.861Z,97385.03
2022-11-27T07:29:58.408Z,97400.63
2022-11-27T07:32:25.001Z,97390.31
2022-11-27T07:34:51.635Z,97387.94
2022-11-27T07:37:18.282Z,97364.03
2022-11-27T07:40:02.016Z,97338.72
2022-11-27T07:42:37.946Z,97359.88
2022-11-27T07:45:09.108Z,97375.25
2022-11-27T07:47:35.864Z,97344.41
2022-11-27T07:50:02.900Z,97341.13
2022-11-27T07:52:29.559Z,97344.78
2022-11-27T07:54:56.276Z,97341.16
2022-11-27T07:57:22.886Z,97368.03
2022-11-27T07:59:49.581Z,97342.00
2022-11-27T08:02:18.427Z,97369.47
2022-11-27T08:04:45.294Z,97356.69
2022-11-27T08:07:12.077Z,97343.22
2022-11-27T08:09:40.021Z,97318.03
2022-11-27T08:12:07.332Z,97357.13
2022-11-27T08:14:34.210Z,97355.97
2022-11-27T08:17:00.849Z,97348.22
2022-11-27T08:19:27.608Z,97361.88
2022-11-27T08:21:56.201Z,97343.59
2022-11-27T08:24:22.814Z,97314.53
2022-11-27T08:26:49.392Z,97336.06
2022-11-27T08:29:16.055Z,97359.84
2022-11-27T08:31:42.722Z,97337.75
2022-11-27T08:34:09.348Z,97370.59
2022-11-27T08:36:35.933Z,97330.13
2022-11-27T08:39:02.543Z,97369.94
2022-11-27T08:41:29.156Z,97369.25
2022-11-27T08:43:55.778Z,97348.84
2022-11-27T08:46:22.393Z,97360.72
2022-11-27T08:48:49.030Z,97369.75
2022-11-27T08:51:16.568Z,97326.91
2022-11-27T08:53:45.549Z,97325.16
2022-11-27T08:56:17.920Z,97353.53
2022-11-27T08:58:44.884Z,97335.91
2022-11-27T09:01:15.880Z,97317.38
2022-11-27T09:03:42.666Z,97307.94
2022-11-27T09:06:12.481Z,97296.75
2022-11-27T09:08:40.389Z,97336.06
2022-11-27T09:11:08.041Z,97331.91
2022-11-27T09:13:37.001Z,97336.97
2022-11-27T09:16:05.467Z,97341.47
2022-11-27T09:18:32.426Z,97346.25
2022-11-27T09:21:04.768Z,97335.75
2022-11-27T09:23:32.075Z,97341.69
2022-11-27T09:26:03.314Z,97330.50
2022-11-27T09:28:31.816Z,97338.72
2022-11-27T09:31:00.573Z,97341.25
2022-11-27T09:33:28.978Z,97353.25
2022-11-27T09:35:56.111Z,97320.72
2022-11-27T09:38:23.847Z,97331.78
2022-11-27T09:41:03.111Z,97336.81
2022-11-27T09:43:34.619Z,97301.84
2022-11-27T09:46:09.320Z,97293.88
2022-11-27T09:48:42.263Z,97329.25
2022-11-27T09:51:19.668Z,97328.53
2022-11-27T09:53:50.352Z,97329.56
2022-11-27T09:56:18.903Z,97303.81
2022-11-27T09:58:56.072Z,97314.59
2022-11-27T10:01:38.442Z,97314.69
2022-11-27T10:04:15.540Z,97312.22
2022-11-27T10:06:48.165Z,97313.63
2022-11-27T10:09:14.795Z,97304.97
2022-11-27T10:11:44.335Z,97307.66
2022-11-27T10:14:32.719Z,97300.25
2022-11-27T10:17:15.713Z,97304.03
2022-11-27T10:19:51.384Z,97306.22
2022-11-27T10:22:46.038Z,97305.91
2022-11-27T10:25:20.508Z,97277.38
2022-11-27T10:27:59.261Z,97309.75
2022-11-27T10:30:27.107Z,97298.00
2022-11-27T10:32:57.375Z,97300.44
2022-11-27T10:35:27.202Z,97279.13
2022-11-27T10:38:25.141Z,97290.63
2022-11-27T10:40:54.664Z,97283.94
2022-11-27T10:43:24.629Z,97272.44
2022-11-27T10:46:27.665Z,97266.75
2022-11-27T10:48:54.336Z,97219.53
2022-11-27T10:51:37.028Z,97255.75
2022-11-27T10:54:07.404Z,97254.38
2022-11-27T10:56:46.954Z,97232.66
2022-11-27T10:59:22.432Z,97243.28
2022-11-27T11:01:55.522Z,97252.03
2022-11-27T11:04:42.258Z,97248.25
2022-11-27T11:07:25.565Z,97240.34
2022-11-27T11:09:53.378Z,97238.31
2022-11-27T11:12:22.385Z,97212.28
2022-11-27T11:14:57.101Z,97235.38
2022-11-27T11:17:30.542Z,97207.88
2022-11-27T11:19:57.430Z,97225.34
2022-11-27T11:22:24.570Z,97184.91
2022-11-27T11:24:53.220Z,97226.38
2022-11-27T11:27:32.208Z,97209.06
2022-11-27T11:30:01.589Z,97209.69
2022-11-27T11:32:40.153Z,97202.59
2022-11-27T11:35:32.667Z,97218.81
2022-11-27T11:37:59.436Z,97224.47
2022-11-27T11:40:27.931Z,97222.38
2022-11-27T11:43:01.007Z,97195.16
2022-11-27T11:45:33.004Z,97211.25
2022-11-27T11:48:36.463Z,97201.56
2022-11-27T11:51:32.023Z,97205.97
2022-11-27T11:54:37.538Z,97196.06
2022-11-27T11:57:18.922Z,97201.94
2022-11-27T11:59:58.988Z,97197.63
2022-11-27T12:02:47.643Z,97197.97
2022-11-27T12:05:33.066Z,97192.44
2022-11-27T12:08:07.561Z,97157.91
2022-11-27T12:10:50.229Z,97177.22
2022-11-27T12:13:30.312Z,97179.34
2022-11-27T12:16:07.610Z,97165.56
2022-11-27T12:18:37.158Z,97159.03
2022-11-27T12:21:26.106Z,97155.50
2022-11-27T12:24:43.581Z,97157.56
2022-11-27T12:27:33.395Z,97157.97
2022-11-27T12:29:59.917Z,97159.94
2022-11-27T12:32:43.908Z,97083.69
2022-11-27T12:35:39.433Z,97159.41
2022-11-27T12:38:24.157Z,97144.28
2022-11-27T12:41:27.636Z,97142.63
2022-11-27T12:44:00.123Z,97121.41
2022-11-27T12:46:40.852Z,97130.00
2022-11-27T12:49:47.753Z,97114.91
2022-11-27T12:52:19.687Z,97131.28
2022-11-27T12:54:58.502Z,97128.88
2022-11-27T12:57:34.098Z,97120.75
2022-11-27T13:00:19.816Z,97125.38
2022-11-27T13:03:07.889Z,97116.00
2022-11-27T13:05:49.678Z,97110.09
2022-11-27T13:08:23.913Z,97080.22
2022-11-27T13:11:03.966Z,97106.16
2022-11-27T13:13:35.465Z,97079.31
2022-11-27T13:16:18.687Z,97095.91
2022-11-27T13:18:57.948Z,97084.16
2022-11-27T13:21:29.123Z,97081.84
2022-11-27T13:23:55.907Z,97078.84
2022-11-27T13:26:31.327Z,97061.53
2022-11-27T13:29:02.102Z,97052.72
2022-11-27T13:31:35.379Z,97068.19
2022-11-27T13:34:07.264Z,97082.34
2022-11-27T13:36:41.891Z,97081.31
2022-11-27T13:39:23.598Z,97057.34
2022-11-27T13:42:02.379Z,97050.03
2022-11-27T13:44:30.026Z,97056.06
2022-11-27T13:47:06.358Z,97084.09
2022-11-27T13:49:36.204Z,97082.97
2022-11-27T13:52:19.871Z,97090.75
2022-11-27T13:55:22.498Z,97080.22
2022-11-27T13:57:57.798Z,97037.00
2022-11-27T14:00:43.020Z,97066.72
2022-11-27T14:03:29.234Z,97057.16
2022-11-27T14:05:57.582Z,96933.56
2022-11-27T14:08:26.600Z,97057.34
2022-11-27T14:10:58.800Z,97050.28
2022-11-27T14:13:42.142Z,97032.69
2022-11-27T14:16:32.303Z,97042.53
2022-11-27T14:19:01.961Z,97050.47
2022-11-27T14:21:42.841Z,97044.22
2022-11-27T14:24:55.617Z,97042.66
2022-11-27T14:27:32.899Z,97011.81
2022-11-27T14:30:21.334Z,97037.00
2022-11-27T14:32:49.323Z,97007.00
2022-11-27T14:35:25.323Z,97033.94
2022-11-27T14:37:52.070Z,97025.97
2022-11-27T14:40:25.377Z,97053.69
2022-11-27T14:42:52.074Z,97052.09
2022-11-27T14:45:22.352Z,97015.16
2022-11-27T14:47:51.551Z,97023.31
2022-11-27T14:50:20.794Z,97012.19
2022-11-27T14:52:53.776Z,97018.16
2022-11-27T14:55:21.675Z,97020.84
2022-11-27T14:57:50.299Z,97035.03
2022-11-27T15:00:25.190Z,96995.94
2022-11-27T15:02:52.131Z,97013.59
2022-11-27T15:05:20.745Z,97006.09
2022-11-27T15:07:50.978Z,96998.22
2022-11-27T15:10:38.402Z,96981.56
2022-11-27T15:13:06.386Z,97002.78
2022-11-27T15:15:39.861Z,96972.63
2022-11-27T15:18:08.643Z,96993.25
2022-11-27T15:20:41.258Z,96989.41
2022-11-27T15:23:35.307Z,96988.31
2022-11-27T15:26:02.097Z,96990.44
2022-11-27T15:28:42.655Z,96988.59
2022-11-27T15:31:37.207Z,96993.00
2022-11-27T15:34:16.394Z,96988.09
2022-11-27T15:37:06.846Z,96990.00
2022-11-27T15:39:46.621Z,96989.22
2022-11-27T15:42:14.617Z,96971.88
2022-11-27T15:44:41.808Z,96980.50
2022-11-27T15:47:40.264Z,96984.41
2022-11-27T15:50:07.868Z,96948.44
2022-11-27T15:52:34.458Z,96961.59
2022-11-27T15:55:01.071Z,96928.34
2022-11-27T15:57:27.688Z,96952.66
2022-11-27T15:59:54.293Z,96950.41
2022-11-27T16:02:20.960Z,96934.06
2022-11-27T16:04:47.632Z,96957.09
2022-11-27T16:07:14.649Z,96961.28
2022-11-27T16:09:41.305Z,96934.50
2022-11-27T16:12:08.037Z,96967.16
2022-11-27T16:14:34.725Z,96979.25
2022-11-27T16:17:01.805Z,96962.84
2022-11-27T16:19:28.766Z,96934.34
2022-11-27T16:21:56.788Z,96933.31
2022-11-27T16:24:23.619Z,96919.69
2022-11-27T16:26:50.260Z,96929.66
2022-11-27T16:29:16.914Z,96952.69
2022-11-27T16:31:43.912Z,96937.59
2022-11-27T16:34:11.322Z,96940.78
2022-11-27T16:36:43.859Z,96952.44
2022-11-27T16:39:11.920Z,96948.09
2022-11-27T16:41:39.371Z,96934.22
2022-11-27T16:44:11.766Z,96923.59
2022-11-27T16:46:39.192Z,96919.44
2022-11-27T16:49:09.757Z,96868.91
2022-11-27T16:51:39.247Z,96885.94
2022-11-27T16:54:09.694Z,96869.81
2022-11-27T16:56:38.385Z,96831.91
2022-11-27T16:59:15.773Z,96834.56
2022-11-27T17:01:43.788Z,96856.22
2022-11-27T17:04:18.396Z,96846.88
2022-11-27T17:06:46.056Z,96843.25
2022-11-27T17:09:13.264Z,96811.94
2022-11-27T17:11:43.330Z,96834.94
2022-11-27T17:14:10.848Z,96827.63
2022-11-27T17:16:41.243Z,96816.97
2022-11-27T17:19:14.322Z,96832.41
2022-11-27T17:21:41.613Z,96794.31
2022-11-27T17:24:15.342Z,96802.66
2022-11-27T17:26:44.813Z,96789.91
2022-11-27T17:29:13.722Z,96787.28
2022-11-27T17:31:40.752Z,96789.44
2022-11-27T17:34:10.811Z,96785.81
2022-11-27T17:36:38.800Z,96743.25
2022-11-27T17:39:06.278Z,96759.72
2022-11-27T17:41:33.638Z,96741.69
2022-11-27T17:44:00.479Z,96735.44
2022-11-27T17:46:29.076Z,96767.13
2022-11-27T17:48:59.096Z,96766.13
2022-11-27T17:51:27.774Z,96759.34
2022-11-27T17:53:54.856Z,96762.94
2022-11-27T17:56:23.177Z,96725.06
2022-11-27T17:58:50.136Z,96740.00
2022-11-27T18:01:25.053Z,96746.97
2022-11-27T18:03:55.596Z,96779.31
2022-11-27T18:06:23.184Z,96778.78
2022-11-27T18:08:52.345Z,96755.63
2022-11-27T18:11:22.385Z,96777.53
2022-11-27T18:13:50.369Z,96750.59
2022-11-27T18:16:28.963Z,96785.63
2022-11-27T18:18:57.511Z,96802.28
2022-11-27T18:21:26.999Z,96799.47
2022-11-27T18:24:22.017Z,96779.88
2022-11-27T18:29:28.593Z,96784.50
2022-11-27T18:31:56.620Z,96776.50
2022-11-27T18:34:26.021Z,96762.13
2022-11-27T18:36:57.232Z,96779.91
2022-11-27T18:39:24.023Z,96751.19
2022-11-27T18:41:50.891Z,96755.34
2022-11-27T18:44:17.616Z,96741.50
2022-11-27T18:46:44.353Z,96748.56
2022-11-27T18:49:11.160Z,96742.00
2022-11-27T18:51:37.801Z,96772.56
2022-11-27T18:54:04.776Z,96765.53
2022-11-27T18:56:32.319Z,96758.25
2022-11-27T18:59:04.143Z,96757.97
2022-11-27T19:01:40.964Z,96754.09
2022-11-27T19:04:09.508Z,96731.41
2022-11-27T19:06:37.121Z,96717.06
2022-11-27T19:09:05.029Z,96722.81
2022-11-27T19:11:32.800Z,96765.88
2022-11-27T19:13:59.810Z,96752.06
2022-11-27T19:16:32.340Z,96727.53
2022-11-27T19:19:00.465Z,96727.75
2022-11-27T19:21:29.843Z,96727.50
2022-11-27T19:23:58.909Z,96723.13
2022-11-27T19:26:28.788Z,96704.34
2022-11-27T19:28:58.568Z,96719.72
2022-11-27T19:31:26.424Z,96718.16
2022-11-27T19:33:58.813Z,96721.59
2022-11-27T19:36:26.016Z,96712.22
2022-11-27T19:38:59.036Z,96691.84
2022-11-27T19:41:27.199Z,96682.66
2022-11-27T19:44:04.778Z,96687.88
2022-11-27T19:46:34.825Z,96725.72
2022-11-27T19:49:13.981Z,96720.25
2022-11-27T19:51:41.070Z,96721.34
2022-11-27T19:54:10.579Z,96701.97
2022-11-27T19:56:40.081Z,96675.13
2022-11-27T19:59:07.846Z,96688.19
2022-11-27T20:01:35.886Z,96675.44
2022-11-27T20:04:03.988Z,96692.69
2022-11-27T20:06:31.281Z,96662.19
2022-11-27T20:09:03.820Z,96673.38
2022-11-27T20:11:34.923Z,96660.63
2022-11-27T20:14:05.288Z,96629.09
2022-11-27T20:16:34.407Z,96643.66
2022-11-27T20:19:05.375Z,96667.69
2022-11-27T20:21:33.965Z,96652.28
2022-11-27T20:24:02.715Z,96672.13
2022-11-27T20:26:30.612Z,96666.38
2022-11-27T20:28:58.999Z,96658.53
2022-11-27T20:31:33.845Z,96648.13
2022-11-27T20:34:04.150Z,96675.75
2022-11-27T20:36:34.167Z,96665.34
2022-11-27T20:39:01.878Z,96651.50
2022-11-27T20:41:29.446Z,96663.53
2022-11-27T20:43:59.125Z,96625.22
2022-11-27T20:46:26.684Z,96633.84
2022-11-27T20:48:54.532Z,96643.47
2022-11-27T20:51:24.049Z,96632.28
2022-11-27T20:53:51.956Z,96620.28
2022-11-27T20:56:20.046Z,96635.66
2022-11-27T20:58:47.969Z,96626.00
2022-11-27T21:01:17.172Z,96615.31
2022-11-27T21:03:44.479Z,96589.25
2022-11-27T21:06:11.120Z,96630.19
2022-11-27T21:08:38.167Z,96590.06
2022-11-27T21:11:13.590Z,96587.47
2022-11-27T21:13:40.940Z,96600.25
2022-11-27T21:16:10.611Z,96622.63
2022-11-27T21:18:38.416Z,96617.16
2022-11-27T21:21:12.908Z,96619.00
2022-11-27T21:23:42.590Z,96613.25
2022-11-27T21:26:11.142Z,96588.50
2022-11-27T21:28:39.054Z,96610.41
2022-11-27T21:31:17.323Z,96603.09
2022-11-27T21:33:47.925Z,96598.41
2022-11-27T21:36:15.025Z,96583.03
2022-11-27T21:38:42.589Z,96581.50
2022-11-27T21:41:12.770Z,96591.38
2022-11-27T21:43:41.025Z,96584.09
2022-11-27T21:46:09.468Z,96593.47
2022-11-27T21:48:36.158Z,96563.50
2022-11-27T21:51:04.685Z,96584.09
2022-11-27T21:53:33.752Z,96585.13
2022-11-27T21:56:05.124Z,96567.16
2022-11-27T21:58:34.230Z,96572.09
2022-11-27T22:01:01.960Z,96586.16
2022-11-27T22:03:29.032Z,96474.44
2022-11-27T22:06:01.668Z,96574.97
2022-11-27T22:08:29.956Z,96567.13
2022-11-27T22:10:57.050Z,96538.22
2022-11-27T22:13:24.173Z,96564.03
2022-11-27T22:15:52.149Z,96534.31
2022-11-27T22:18:18.760Z,96565.84
2022-11-27T22:20:45.580Z,96538.75
2022-11-27T22:23:12.272Z,96512.72
2022-11-27T22:25:38.943Z,96522.63
2022-11-27T22:28:06.025Z,96540.59
2022-11-27T22:30:32.835Z,96510.13
2022-11-27T22:32:59.731Z,96515.84
2022-11-27T22:35:26.493Z,96539.00
2022-11-27T22:37:54.138Z,96504.13
2022-11-27T22:40:22.419Z,96536.16
2022-11-27T22:42:50.053Z,96528.84
2022-11-27T22:45:17.225Z,96524.94
2022-11-27T22:47:43.850Z,96505.97
2022-11-27T22:50:10.786Z,96520.53
2022-11-27T22:52:37.604Z,96504.91
2022-11-27T22:55:04.555Z,96526.25
2022-11-27T22:57:33.979Z,96490.84
2022-11-27T23:00:00.582Z,96518.69
2022-11-27T23:02:27.247Z,96475.50
2022-11-27T23:04:53.841Z,96493.22
2022-11-27T23:07:24.971Z,96513.25
2022-11-27T23:09:52.178Z,96464.84
2022-11-27T23:12:18.848Z,96482.78
2022-11-27T23:14:45.408Z,96456.50
2022-11-27T23:17:12.091Z,96496.59
2022-11-27T23:19:38.695Z,96480.97
2022-11-27T23:22:05.391Z,96486.47
2022-11-27T23:24:32.316Z,96467.94
2022-11-27T23:26:58.980Z,96464.56
2022-11-27T23:29:25.598Z,96468.75
2022-11-27T23:31:52.275Z,96456.53
2022-11-27T23:34:18.915Z,96411.75
2022-11-27T23:36:45.846Z,96479.66
2022-11-27T23:39:13.663Z,96449.47
2022-11-27T23:41:40.702Z,96442.97
2022-11-27T23:44:07.770Z,96470.56
2022-11-27T23:46:34.581Z,96451.53
2022-11-27T23:49:01.305Z,96467.19
2022-11-27T23:51:31.073Z,96411.72
2022-11-27T23:53:58.956Z,96464.56
2022-11-27T23:56:28.464Z,96457.28
2022-11-27T23:58:56.548Z,96445.84
